createdAt,value
2018-05-27T00:01:27.474Z,6.60
2018-05-27T00:03:55.750Z,6.07
2018-05-27T00:06:24.003Z,5.90
2018-05-27T00:08:53.338Z,5.72
2018-05-27T00:11:21.595Z,5.90
2018-05-27T00:13:50.660Z,6.53
2018-05-27T00:16:18.903Z,6.40
2018-05-27T00:18:47.155Z,6.70
2018-05-27T00:21:16.183Z,6.50
2018-05-27T00:23:44.452Z,5.80
2018-05-27T00:26:12.705Z,6.70
2018-05-27T00:28:41.731Z,6.40
2018-05-27T00:31:09.987Z,6.27
2018-05-27T00:33:39.015Z,6.37
2018-05-27T00:36:07.263Z,6.90
2018-05-27T00:38:36.375Z,6.70
2018-05-27T00:41:04.634Z,6.20
2018-05-27T00:43:33.666Z,6.43
2018-05-27T00:46:02.585Z,6.27
2018-05-27T00:48:30.852Z,6.20
2018-05-27T00:50:59.117Z,5.70
2018-05-27T00:54:00.210Z,5.23
2018-05-27T00:56:29.259Z,5.53
2018-05-27T00:58:57.511Z,5.33
2018-05-27T01:01:26.632Z,5.50
2018-05-27T01:03:54.899Z,5.80
2018-05-27T01:06:23.181Z,6.27
2018-05-27T01:08:51.430Z,6.07
2018-05-27T01:11:20.468Z,6.00
2018-05-27T01:13:48.723Z,6.03
2018-05-27T01:16:17.755Z,6.25
2018-05-27T01:18:46.983Z,6.25
2018-05-27T01:21:15.246Z,6.23
2018-05-27T01:23:43.494Z,6.53
2018-05-27T01:26:11.763Z,6.50
2018-05-27T01:28:40.869Z,6.53
2018-05-27T01:31:09.916Z,6.53
2018-05-27T01:33:38.167Z,6.60
2018-05-27T01:36:06.435Z,6.62
2018-05-27T01:38:34.730Z,6.63
2018-05-27T01:41:03.005Z,6.27
2018-05-27T01:43:32.047Z,6.63
2018-05-27T01:46:00.380Z,6.23
2018-05-27T01:48:28.656Z,6.97
2018-05-27T01:50:57.759Z,6.53
2018-05-27T01:53:26.017Z,6.63
2018-05-27T01:55:55.065Z,6.85
2018-05-27T01:58:23.312Z,7.00
2018-05-27T02:00:52.859Z,6.80
2018-05-27T02:03:21.121Z,6.93
2018-05-27T02:05:49.401Z,7.23
2018-05-27T02:08:17.661Z,7.13
2018-05-27T02:10:46.767Z,6.73
2018-05-27T02:13:15.039Z,7.03
2018-05-27T02:15:44.073Z,7.53
2018-05-27T02:18:12.323Z,6.70
2018-05-27T02:20:40.601Z,6.73
2018-05-27T02:23:09.706Z,6.73
2018-05-27T02:25:37.980Z,6.43
2018-05-27T02:28:07.005Z,6.37
2018-05-27T02:30:35.422Z,7.00
2018-05-27T02:33:04.059Z,7.15
2018-05-27T02:35:32.464Z,6.80
2018-05-27T02:38:00.716Z,7.43
2018-05-27T02:40:29.757Z,7.73
2018-05-27T02:42:58.015Z,8.43
2018-05-27T02:45:26.271Z,8.50
2018-05-27T02:47:55.287Z,7.37
2018-05-27T02:50:23.547Z,7.00
2018-05-27T02:52:52.583Z,6.53
2018-05-27T02:55:20.851Z,7.07
2018-05-27T02:57:49.111Z,7.60
2018-05-27T03:00:18.156Z,7.87
2018-05-27T03:02:46.551Z,7.83
2018-05-27T03:05:16.439Z,8.35
2018-05-27T03:07:44.711Z,7.30
2018-05-27T03:10:12.971Z,8.00
2018-05-27T03:12:42.001Z,7.67
2018-05-27T03:15:10.265Z,7.10
2018-05-27T03:17:38.533Z,6.70
2018-05-27T03:20:07.555Z,6.90
2018-05-27T03:22:35.827Z,7.10
2018-05-27T03:25:04.099Z,7.27
2018-05-27T03:27:32.364Z,7.73
2018-05-27T03:30:01.381Z,6.93
2018-05-27T03:32:29.651Z,6.37
2018-05-27T03:34:58.659Z,6.77
2018-05-27T03:37:27.979Z,7.10
2018-05-27T03:39:56.226Z,7.07
2018-05-27T03:42:25.339Z,6.47
2018-05-27T03:44:53.593Z,7.12
2018-05-27T03:47:22.614Z,6.90
2018-05-27T03:49:50.883Z,6.77
2018-05-27T03:52:19.907Z,7.43
2018-05-27T03:54:48.166Z,7.30
2018-05-27T03:57:17.195Z,6.90
2018-05-27T03:59:45.459Z,7.12
2018-05-27T04:02:13.832Z,6.13
2018-05-27T04:05:03.296Z,6.55
2018-05-27T04:07:51.426Z,6.80
2018-05-27T04:10:20.452Z,6.93
2018-05-27T04:12:48.733Z,6.47
2018-05-27T04:15:16.993Z,7.10
2018-05-27T04:17:45.252Z,6.10
2018-05-27T04:20:14.266Z,5.80
2018-05-27T04:22:43.290Z,6.13
2018-05-27T04:25:11.550Z,5.87
2018-05-27T04:27:39.815Z,5.63
2018-05-27T04:30:08.847Z,6.53
2018-05-27T04:32:37.121Z,5.60
2018-05-27T04:35:05.369Z,5.90
2018-05-27T04:37:34.647Z,5.90
2018-05-27T04:40:03.692Z,6.20
2018-05-27T04:42:31.968Z,6.30
2018-05-27T04:45:01.003Z,5.53
2018-05-27T04:47:29.266Z,5.60
2018-05-27T04:49:57.527Z,5.33
2018-05-27T04:52:26.569Z,5.27
2018-05-27T04:54:54.827Z,5.40
2018-05-27T04:57:23.093Z,5.47
2018-05-27T04:59:51.347Z,5.47
2018-05-27T05:02:20.463Z,5.07
2018-05-27T05:04:49.489Z,4.83
2018-05-27T05:07:18.692Z,4.67
2018-05-27T05:09:46.960Z,5.10
2018-05-27T05:12:15.236Z,5.37
2018-05-27T05:14:43.487Z,5.40
2018-05-27T05:17:12.503Z,5.47
2018-05-27T05:19:40.770Z,5.55
2018-05-27T05:22:09.806Z,5.63
2018-05-27T05:24:38.080Z,5.50
2018-05-27T05:27:06.356Z,5.10
2018-05-27T05:29:34.624Z,6.18
2018-05-27T05:32:03.111Z,5.70
2018-05-27T05:34:31.388Z,5.83
2018-05-27T05:37:00.410Z,5.47
2018-05-27T05:39:29.503Z,5.36
2018-05-27T05:41:57.770Z,6.00
2018-05-27T05:44:26.797Z,5.22
2018-05-27T05:46:55.042Z,5.20
2018-05-27T05:49:24.062Z,4.97
2018-05-27T05:51:52.319Z,5.35
2018-05-27T05:54:21.360Z,4.70
2018-05-27T05:56:49.620Z,5.20
2018-05-27T05:59:17.875Z,5.15
2018-05-27T06:01:46.135Z,5.20
2018-05-27T06:04:15.173Z,5.20
2018-05-27T06:06:43.424Z,5.57
2018-05-27T06:09:12.467Z,5.03
2018-05-27T06:11:42.349Z,5.48
2018-05-27T06:14:11.388Z,4.53
2018-05-27T06:16:39.674Z,4.80
2018-05-27T06:19:07.930Z,4.32
2018-05-27T06:21:36.195Z,4.60
2018-05-27T06:24:04.465Z,4.22
2018-05-27T06:26:33.487Z,4.90
2018-05-27T06:29:01.764Z,4.53
2018-05-27T06:31:30.012Z,4.45
2018-05-27T06:33:59.047Z,4.93
2018-05-27T06:36:27.315Z,4.55
2018-05-27T06:38:55.582Z,4.80
2018-05-27T06:41:24.611Z,4.90
2018-05-27T06:43:54.938Z,4.64
2018-05-27T06:46:23.214Z,4.95
2018-05-27T06:48:51.475Z,4.90
2018-05-27T06:51:20.541Z,4.60
2018-05-27T06:53:48.767Z,4.80
2018-05-27T06:56:17.033Z,4.45
2018-05-27T06:58:46.060Z,4.90
2018-05-27T07:01:14.314Z,4.60
2018-05-27T07:03:42.590Z,5.10
2018-05-27T07:06:11.698Z,4.70
2018-05-27T07:08:39.953Z,5.05
2018-05-27T07:11:08.978Z,4.47
2018-05-27T07:13:37.234Z,4.50
2018-05-27T07:16:06.271Z,4.57
2018-05-27T07:18:34.531Z,4.40
2018-05-27T07:21:03.631Z,4.50
2018-05-27T07:23:31.901Z,4.90
2018-05-27T07:26:01.764Z,4.03
2018-05-27T07:28:30.024Z,4.60
2018-05-27T07:30:58.287Z,4.70
2018-05-27T07:33:27.399Z,4.80
2018-05-27T07:35:55.668Z,4.90
2018-05-27T07:38:26.007Z,4.53
2018-05-27T07:40:54.274Z,4.30
2018-05-27T07:43:23.291Z,3.63
2018-05-27T07:45:51.554Z,3.67
2018-05-27T07:48:19.810Z,3.72
2018-05-27T07:50:48.847Z,4.03
2018-05-27T07:53:17.536Z,4.30
2018-05-27T07:55:45.802Z,4.10
2018-05-27T07:58:14.130Z,4.32
2018-05-27T08:00:43.834Z,4.40
2018-05-27T08:03:12.183Z,4.15
2018-05-27T08:05:40.460Z,4.00
2018-05-27T08:08:09.479Z,4.10
2018-05-27T08:10:39.071Z,4.10
2018-05-27T08:13:07.330Z,4.60
2018-05-27T08:15:36.476Z,5.10
2018-05-27T08:18:04.734Z,4.53
2018-05-27T08:20:32.986Z,4.80
2018-05-27T08:23:02.028Z,4.68
2018-05-27T08:25:30.291Z,4.93
2018-05-27T08:27:59.311Z,4.60
2018-05-27T08:30:27.588Z,4.70
2018-05-27T08:32:56.563Z,4.65
2018-05-27T08:35:24.835Z,4.55
2018-05-27T08:37:53.860Z,4.20
2018-05-27T08:40:22.136Z,4.30
2018-05-27T08:42:53.263Z,4.50
2018-05-27T08:45:22.290Z,4.47
2018-05-27T08:47:50.547Z,4.68
2018-05-27T08:50:18.839Z,4.57
2018-05-27T08:52:47.099Z,4.23
2018-05-27T08:55:17.375Z,4.30
2018-05-27T08:57:45.636Z,4.30
2018-05-27T09:00:13.970Z,4.33
2018-05-27T09:02:42.994Z,4.30
2018-05-27T09:05:12.027Z,4.10
2018-05-27T09:07:40.284Z,4.15
2018-05-27T09:10:08.539Z,4.37
2018-05-27T09:12:37.576Z,4.40
2018-05-27T09:15:05.845Z,4.30
2018-05-27T09:17:34.116Z,3.90
2018-05-27T09:20:02.366Z,4.10
2018-05-27T09:22:31.408Z,3.80
2018-05-27T09:24:59.690Z,3.80
2018-05-27T09:27:27.950Z,3.25
2018-05-27T09:29:56.791Z,3.80
2018-05-27T09:32:25.060Z,3.73
2018-05-27T09:34:53.326Z,3.60
2018-05-27T09:37:21.587Z,3.85
2018-05-27T09:39:49.852Z,3.85
2018-05-27T09:42:18.887Z,3.43
2018-05-27T09:44:47.139Z,3.30
2018-05-27T09:47:16.166Z,3.60
2018-05-27T09:49:44.426Z,3.50
2018-05-27T09:52:13.459Z,3.20
2018-05-27T09:54:41.712Z,3.50
2018-05-27T09:57:10.198Z,3.40
2018-05-27T09:59:39.046Z,3.10
2018-05-27T10:02:08.116Z,3.08
2018-05-27T10:04:36.476Z,3.43
2018-05-27T10:07:04.739Z,3.47
2018-05-27T10:09:32.995Z,3.60
2018-05-27T10:12:02.037Z,3.27
2018-05-27T10:14:30.303Z,3.57
2018-05-27T10:16:58.566Z,3.10
2018-05-27T10:19:27.604Z,3.20
2018-05-27T10:21:56.115Z,3.03
2018-05-27T10:24:24.374Z,3.03
2018-05-27T10:26:52.623Z,3.57
2018-05-27T10:29:21.059Z,3.30
2018-05-27T10:31:49.336Z,3.00
2018-05-27T10:34:17.595Z,3.40
2018-05-27T10:36:45.871Z,3.10
2018-05-27T10:39:14.134Z,2.92
2018-05-27T10:41:43.159Z,3.17
2018-05-27T10:44:11.407Z,3.23
2018-05-27T10:46:39.675Z,3.30
2018-05-27T10:49:08.704Z,2.80
2018-05-27T10:51:36.969Z,3.58
2018-05-27T10:54:05.235Z,3.00
2018-05-27T10:56:35.183Z,3.10
2018-05-27T10:59:03.432Z,2.73
2018-05-27T11:01:34.495Z,2.70
2018-05-27T11:04:02.748Z,2.80
2018-05-27T11:06:31.789Z,2.87
2018-05-27T11:09:00.071Z,2.63
2018-05-27T11:11:28.331Z,2.92
2018-05-27T11:13:57.359Z,2.55
2018-05-27T11:16:25.625Z,2.50
2018-05-27T11:18:53.922Z,2.60
2018-05-27T11:21:22.163Z,2.45
2018-05-27T11:23:51.217Z,2.20
2018-05-27T11:26:19.451Z,2.30
2018-05-27T11:28:47.715Z,2.27
2018-05-27T11:31:16.830Z,2.70
2018-05-27T11:33:45.571Z,2.52
2018-05-27T11:36:13.824Z,2.47
2018-05-27T11:38:42.094Z,2.17
2018-05-27T11:41:10.357Z,2.57
2018-05-27T11:43:39.394Z,2.70
2018-05-27T11:46:07.650Z,2.40
2018-05-27T11:48:35.964Z,2.70
2018-05-27T11:51:04.940Z,2.60
2018-05-27T11:53:33.214Z,2.60
2018-05-27T11:56:01.469Z,2.60
2018-05-27T11:58:30.503Z,2.40
2018-05-27T12:00:58.756Z,2.70
2018-05-27T12:03:27.794Z,2.45
2018-05-27T12:05:56.045Z,2.80
2018-05-27T12:08:24.311Z,2.80
2018-05-27T12:10:53.567Z,2.40
2018-05-27T12:13:21.829Z,2.57
2018-05-27T12:15:50.078Z,2.37
2018-05-27T12:18:18.351Z,2.40
2018-05-27T12:20:47.379Z,2.40
2018-05-27T12:23:15.638Z,2.90
2018-05-27T12:25:43.920Z,2.40
2018-05-27T12:28:12.190Z,2.40
2018-05-27T12:30:41.211Z,2.50
2018-05-27T12:33:09.475Z,2.80
2018-05-27T12:35:38.492Z,2.72
2018-05-27T12:38:06.755Z,3.12
2018-05-27T12:40:35.024Z,3.00
2018-05-27T12:43:04.055Z,2.87
2018-05-27T12:45:32.314Z,2.78
2018-05-27T12:48:01.243Z,2.90
2018-05-27T12:50:29.594Z,3.20
2018-05-27T12:52:57.858Z,3.03
2018-05-27T12:55:26.886Z,3.00
2018-05-27T12:57:55.153Z,3.10
2018-05-27T13:00:23.416Z,3.03
2018-05-27T13:02:52.451Z,3.00
2018-05-27T13:05:20.699Z,3.20
2018-05-27T13:07:49.715Z,3.03
2018-05-27T13:10:17.988Z,2.80
2018-05-27T13:12:46.243Z,2.97
2018-05-27T13:15:15.282Z,3.03
2018-05-27T13:17:43.553Z,2.80
2018-05-27T13:20:11.815Z,3.10
2018-05-27T13:22:40.846Z,2.70
2018-05-27T13:25:09.116Z,2.67
2018-05-27T13:27:37.363Z,2.90
2018-05-27T13:30:05.709Z,3.03
2018-05-27T13:32:33.928Z,2.90
2018-05-27T13:35:02.963Z,2.87
2018-05-27T13:37:31.215Z,2.87
2018-05-27T13:40:00.247Z,2.80
2018-05-27T13:42:28.505Z,2.70
2018-05-27T13:44:56.808Z,2.90
2018-05-27T13:47:25.791Z,2.83
2018-05-27T13:49:54.067Z,2.80
2018-05-27T13:52:22.337Z,2.80
2018-05-27T13:54:51.359Z,3.03
2018-05-27T13:57:19.618Z,2.60
2018-05-27T13:59:47.899Z,2.90
2018-05-27T14:02:17.608Z,2.94
2018-05-27T14:04:46.769Z,3.12
2018-05-27T14:07:14.966Z,3.10
2018-05-27T14:09:44.009Z,3.37
2018-05-27T14:12:12.263Z,3.10
2018-05-27T14:14:41.291Z,2.90
2018-05-27T14:17:09.595Z,3.08
2018-05-27T14:19:38.574Z,3.43
2018-05-27T14:22:06.834Z,3.10
2018-05-27T14:24:35.107Z,3.40
2018-05-27T14:27:03.363Z,3.20
2018-05-27T14:29:31.633Z,3.20
2018-05-27T14:31:59.891Z,3.13
2018-05-27T14:34:28.221Z,3.25
2018-05-27T14:36:57.248Z,3.72
2018-05-27T14:39:25.514Z,3.37
2018-05-27T14:41:53.762Z,3.53
2018-05-27T14:44:22.811Z,3.80
2018-05-27T14:46:51.061Z,3.97
2018-05-27T14:49:20.092Z,4.40
2018-05-27T14:51:48.343Z,4.17
2018-05-27T14:54:16.632Z,4.57
2018-05-27T14:56:45.647Z,4.50
2018-05-27T14:59:13.920Z,4.37
2018-05-27T15:01:42.174Z,3.90
2018-05-27T15:04:11.229Z,4.70
2018-05-27T15:06:40.174Z,4.78
2018-05-27T15:09:09.211Z,4.60
2018-05-27T15:11:37.467Z,4.50
2018-05-27T15:14:06.023Z,4.70
2018-05-27T15:16:34.289Z,4.28
2018-05-27T15:19:03.323Z,4.57
2018-05-27T15:21:31.587Z,4.17
2018-05-27T15:24:00.603Z,4.30
2018-05-27T15:26:28.880Z,4.15
2018-05-27T15:28:57.915Z,4.32
2018-05-27T15:31:26.174Z,3.95
2018-05-27T15:33:54.455Z,4.50
2018-05-27T15:36:23.460Z,4.03
2018-05-27T15:38:53.879Z,4.12
2018-05-27T15:41:22.964Z,4.10
2018-05-27T15:43:51.987Z,4.77
2018-05-27T15:46:20.251Z,4.57
2018-05-27T15:48:48.498Z,4.35
2018-05-27T15:51:17.532Z,4.20
2018-05-27T15:53:45.809Z,4.37
2018-05-27T15:56:14.814Z,4.10
2018-05-27T15:58:43.082Z,4.32
2018-05-27T16:01:11.350Z,4.50
2018-05-27T16:03:40.373Z,3.30
2018-05-27T16:06:08.642Z,3.03
2018-05-27T16:08:36.899Z,3.17
2018-05-27T16:11:05.935Z,3.27
2018-05-27T16:13:34.187Z,3.25
2018-05-27T16:16:03.212Z,3.20
2018-05-27T16:18:31.489Z,3.23
2018-05-27T16:20:59.766Z,2.97
2018-05-27T16:23:28.011Z,3.30
2018-05-27T16:25:57.059Z,3.35
2018-05-27T16:28:25.327Z,3.47
2018-05-27T16:30:53.597Z,3.00
2018-05-27T16:33:21.851Z,2.97
2018-05-27T16:35:50.891Z,3.25
2018-05-27T16:38:19.155Z,3.20
2018-05-27T16:40:47.488Z,3.20
2018-05-27T16:43:16.332Z,3.54
2018-05-27T16:45:44.632Z,3.50
2018-05-27T16:48:12.897Z,3.20
2018-05-27T16:50:42.197Z,3.40
2018-05-27T16:53:10.479Z,3.50
2018-05-27T16:55:38.747Z,3.50
2018-05-27T16:58:07.770Z,3.53
2018-05-27T17:00:36.034Z,3.43
2018-05-27T17:03:05.060Z,3.20
2018-05-27T17:05:33.328Z,3.25
2018-05-27T17:08:01.596Z,3.60
2018-05-27T17:10:29.854Z,3.40
2018-05-27T17:12:58.951Z,3.40
2018-05-27T17:15:29.662Z,3.30
2018-05-27T17:17:57.947Z,3.45
2018-05-27T17:20:26.232Z,3.47
2018-05-27T17:22:54.523Z,3.20
2018-05-27T17:25:22.782Z,3.53
2018-05-27T17:27:51.035Z,3.60
2018-05-27T17:30:19.290Z,3.40
2018-05-27T17:32:48.394Z,3.90
2018-05-27T17:35:16.652Z,3.65
2018-05-27T17:37:45.691Z,3.47
2018-05-27T17:40:13.940Z,3.47
2018-05-27T17:42:42.966Z,3.60
2018-05-27T17:45:11.219Z,3.47
2018-05-27T17:47:41.692Z,3.72
2018-05-27T17:50:09.937Z,3.60
2018-05-27T17:52:39.041Z,3.50
2018-05-27T17:55:07.291Z,3.70
2018-05-27T17:57:36.327Z,3.40
2018-05-27T18:00:04.602Z,3.50
2018-05-27T18:02:32.864Z,3.60
2018-05-27T18:05:01.879Z,3.50
2018-05-27T18:07:30.137Z,3.80
2018-05-27T18:09:59.559Z,3.62
2018-05-27T18:12:27.826Z,3.62
2018-05-27T18:14:56.857Z,3.43
2018-05-27T18:17:25.115Z,3.80
2018-05-27T18:19:54.222Z,3.65
2018-05-27T18:22:22.497Z,3.90
2018-05-27T18:24:51.599Z,3.73
2018-05-27T18:27:20.632Z,3.70
2018-05-27T18:29:48.895Z,3.40
2018-05-27T18:32:17.159Z,3.58
2018-05-27T18:34:45.415Z,3.65
2018-05-27T18:37:15.195Z,4.10
2018-05-27T18:39:43.553Z,3.77
2018-05-27T18:42:11.820Z,3.85
2018-05-27T18:44:40.072Z,3.70
2018-05-27T18:47:09.099Z,4.10
2018-05-27T18:49:37.356Z,3.80
2018-05-27T18:52:05.883Z,4.10
2018-05-27T18:54:34.139Z,4.20
2018-05-27T18:57:02.403Z,3.95
2018-05-27T18:59:31.508Z,4.07
2018-05-27T19:02:00.541Z,4.30
2018-05-27T19:04:28.792Z,4.30
2018-05-27T19:06:57.822Z,4.65
2018-05-27T19:09:26.076Z,4.20
2018-05-27T19:11:54.347Z,4.00
2018-05-27T19:14:23.293Z,4.06
2018-05-27T19:16:51.563Z,4.43
2018-05-27T19:19:20.633Z,4.70
2018-05-27T19:21:48.903Z,4.40
2018-05-27T19:24:18.014Z,4.35
2018-05-27T19:26:46.548Z,4.72
2018-05-27T19:29:14.815Z,4.10
2018-05-27T19:31:43.068Z,4.07
2018-05-27T19:34:11.338Z,4.37
2018-05-27T19:36:39.599Z,4.65
2018-05-27T19:39:09.354Z,4.77
2018-05-27T19:41:37.618Z,4.30
2018-05-27T19:44:05.886Z,4.40
2018-05-27T19:46:34.919Z,4.40
2018-05-27T19:49:03.195Z,4.25
2018-05-27T19:51:32.271Z,4.53
2018-05-27T19:54:01.376Z,4.90
2018-05-27T19:56:29.627Z,4.87
2018-05-27T19:58:59.394Z,4.67
2018-05-27T20:01:28.163Z,4.83
2018-05-27T20:03:56.438Z,5.37
2018-05-27T20:06:25.455Z,5.00
2018-05-27T20:08:53.720Z,4.83
2018-05-27T20:11:21.974Z,5.20
2018-05-27T20:13:51.015Z,4.90
2018-05-27T20:16:19.275Z,4.53
2018-05-27T20:18:48.904Z,5.25
2018-05-27T20:21:17.154Z,4.90
2018-05-27T20:23:46.184Z,4.63
2018-05-27T20:26:14.431Z,4.95
2018-05-27T20:28:43.466Z,5.00
2018-05-27T20:31:11.722Z,4.70
2018-05-27T20:33:40.015Z,4.50
2018-05-27T20:36:08.258Z,4.87
2018-05-27T20:38:37.300Z,5.07
2018-05-27T20:41:05.556Z,4.80
2018-05-27T20:43:34.671Z,4.87
2018-05-27T20:46:02.919Z,4.80
2018-05-27T20:48:31.947Z,5.00
2018-05-27T20:51:00.211Z,5.00
2018-05-27T20:53:29.243Z,5.30
2018-05-27T20:55:57.502Z,5.65
2018-05-27T20:58:25.771Z,5.57
2018-05-27T21:00:54.801Z,5.77
2018-05-27T21:03:23.074Z,6.00
2018-05-27T21:05:51.331Z,5.63
2018-05-27T21:08:20.366Z,5.60
2018-05-27T21:10:48.616Z,5.63
2018-05-27T21:13:17.650Z,6.00
2018-05-27T21:15:45.909Z,5.70
2018-05-27T21:18:14.180Z,6.70
2018-05-27T21:20:42.430Z,5.30
2018-05-27T21:23:11.939Z,5.67
2018-05-27T21:25:40.963Z,5.50
2018-05-27T21:28:09.987Z,5.37
2018-05-27T21:30:38.347Z,5.90
2018-05-27T21:33:07.365Z,6.13
2018-05-27T21:35:35.641Z,5.60
2018-05-27T21:38:03.898Z,6.43
2018-05-27T21:40:32.940Z,6.43
2018-05-27T21:43:01.293Z,6.50
2018-05-27T21:45:29.547Z,6.67
2018-05-27T21:47:58.574Z,6.50
2018-05-27T21:50:26.826Z,6.30
2018-05-27T21:52:55.859Z,5.95
2018-05-27T21:55:24.119Z,6.00
2018-05-27T21:57:52.383Z,5.57
2018-05-27T22:00:21.402Z,6.00
2018-05-27T22:02:49.667Z,6.23
2018-05-27T22:05:18.689Z,5.43
2018-05-27T22:07:46.947Z,6.53
2018-05-27T22:10:15.982Z,6.20
2018-05-27T22:12:44.230Z,6.67
2018-05-27T22:15:12.504Z,6.40
2018-05-27T22:17:41.535Z,6.10
2018-05-27T22:20:09.804Z,6.17
2018-05-27T22:22:38.065Z,5.73
2018-05-27T22:25:07.257Z,5.93
2018-05-27T22:27:35.976Z,5.45
2018-05-27T22:30:04.234Z,5.77
2018-05-27T22:32:33.650Z,5.97
2018-05-27T22:35:02.669Z,5.87
2018-05-27T22:37:30.928Z,6.50
2018-05-27T22:39:59.955Z,6.30
2018-05-27T22:42:28.227Z,6.60
2018-05-27T22:44:56.487Z,6.40
2018-05-27T22:47:25.591Z,6.67
2018-05-27T22:49:53.859Z,6.07
2018-05-27T22:52:22.882Z,6.90
2018-05-27T22:54:51.156Z,6.13
2018-05-27T22:57:19.401Z,6.37
2018-05-27T22:59:48.440Z,6.40
2018-05-27T23:02:17.219Z,5.73
2018-05-27T23:04:45.488Z,5.87
2018-05-27T23:07:14.515Z,5.67
2018-05-27T23:09:42.775Z,5.87
2018-05-27T23:12:11.799Z,6.57
2018-05-27T23:14:40.072Z,6.63
2018-05-27T23:17:08.327Z,6.25
2018-05-27T23:19:37.356Z,6.47
2018-05-27T23:22:06.218Z,5.85
2018-05-27T23:24:35.251Z,6.13
2018-05-27T23:27:03.502Z,6.30
2018-05-27T23:29:31.786Z,6.10
2018-05-27T23:32:00.056Z,6.57
2018-05-27T23:34:29.087Z,5.93
2018-05-27T23:36:57.345Z,6.30
2018-05-27T23:39:25.665Z,6.95
2018-05-27T23:41:53.912Z,6.73
2018-05-27T23:44:22.184Z,6.20
2018-05-27T23:46:51.206Z,6.37
2018-05-27T23:49:19.467Z,6.50
2018-05-27T23:51:47.737Z,5.62
2018-05-27T23:54:18.071Z,6.70
2018-05-27T23:56:47.104Z,6.20
2018-05-27T23:59:15.366Z,6.03
